Update: 26-Nov-2020 04:05Z
22°C
WEATHER FORECAST DUBAI AIRPORT
 
Thursday, November 26, 2020 (04:06 UTC)
Dubai International Airport
Last Updated: 26-Nov-2020 (04:05Z)
Wind Dir/Speed: S at 07 kt
Temperature: 22.2°C
Rel. Humidity: 56 %
Pressure: 1019.3 hPa
Visibility: 10000 m
  • METAR OMDB 260400Z VRB02KT CAVOK 22/14 Q1018 NOSIG
DUBAI AIRPORT 5 DAY IMPACT:
HIGH:
°C
LOW:
°C
HIGH:
°C
LOW:
°C
HIGH:
°C
LOW:
°C
HIGH:
°C
LOW:
°C
HIGH:
°C
LOW:
°C

DUBAI AIRPORT WEATHER FORECAST FOR 30 HOUR:
DUBAI TAF:
TAF OMDB 252300Z 2600/2706 09008KT CAVOK BECMG 2610/2612 35012KT BECMG 2614/2616 10009KT=
VALID FROM:
2020-11-26 00:00Z
VALID TILL:
2020-11-27 06:00Z
SURFACE WIND:
E'LY 08KT

BECOMING N'LY 12KT FROM 1000Z-1200Z TODAY

BECOMING E'LY 09KT FROM 1400Z-1600Z TODAY.
VISIBILITY:
10-12 KM.
WEATHER:
FINE.
CLOUD:
NIL SIGNIFICANT.
TEMPERATURE:
MIN TEMPERATURE 21°C AROUND 0300Z TODAY

MAX TEMPERATURE 30°C AROUND 1000Z TODAY

MIN TEMPERATURE 21°C AROUND 0300Z FRIDAY.
HUMIDITY:
MAX HUMIDITY 70% AROUND 0300Z TODAY

MIN HUMIDITY 30% AROUND 1000Z TODAY

MAX HUMIDITY 70% AROUND 0300Z FRIDAY.
WIND SHEAR:
NIL SIGNIFICANT.
TEMPERATURE INVERSION:
NIL SIGNIFICANT.
COMMENTS:
NIL.